Meteo Giornale » Osservazioni meteo Stati Uniti (USA) » St Paul Downtown Holman Fld
ore: 01:53 - Osservazioni Meteo St Paul Downtown Holman Fld
Lat. 44° 55' N Lon. 93° 2' W Alt. 214 metri s.l.m.
20 °C
Sereno
Temp. 24 Ore
20 °C
33 °C
Nord
0 Km/h
Dew point 18 °C
Umidità 88 %
Visibilità 10 Km
Il sole sorge alle ore 06:34
Il sole tramonta alle ore 19:49
| Data e Ora | Cielo e Fenomeni | T °C | DP °C | Um. % | Pres. hPa | Vis. km | Vento km/h | |
|---|---|---|---|---|---|---|---|---|
| Oggi h: 01:53 | Sereno | 20 | 18 | 88 | 1014 | 10 | N 0 | |
| Oggi h: 00:53 | Sereno | 20 | 18 | 88 | 1014 | 10 | N 0 | |
| Ieri h: 23:53 | Sereno | 21 | 17 | 77 | 1013 | 10 | N 0 | |
| Ieri h: 22:53 | Sereno | 22 | 19 | 83 | 1013 | 10 | N 0 | |
| Ieri h: 21:53 | Sereno | 23 | 18 | 73 | 1012 | 10 | N 0 | |
| Ieri h: 20:53 | Sereno | 24 | 17 | 64 | 1012 | 10 | N 0 | |
| Ieri h: 19:53 | Sereno | 27 | 15 | 47 | 1011 | 10 | N 0 | |
| Ieri h: 18:53 | Sereno | 31 | 14 | 35 | 1011 | 10 | N/NE 9.3 | |
| Ieri h: 17:53 | Sereno | 32 | 13 | 31 | 1011 | 10 | N/NE 13 | |
| Ieri h: 16:53 | Sereno | 33 | 13 | 29 | 1010 | 10 | N 11.1 | |
| Ieri h: 15:53 | Sereno | 33 | 17 | 38 | 1010 | 10 | N/NE 13 | |
| Ieri h: 14:53 | Sereno | 33 | 15 | 33 | 1010 | 10 | N 5.5 | |
| Ieri h: 13:53 | Sereno | 32 | 17 | 40 | 1010 | 10 | N/NO 13 | |
| Ieri h: 12:53 | Sereno | 31 | 22 | 58 | 1010 | 10 | NO 13 | |
| Ieri h: 11:53 | Sereno | 29 | 22 | 66 | 1010 | 10 | NO 14.8 | |
| Ieri h: 10:53 | Sereno | 29 | 22 | 66 | 1010 | 10 | NO 13 | |
| Ieri h: 09:53 | Sereno | 27 | 22 | 74 | 1009 | 10 | O 9.3 | |
| Ieri h: 08:53 | Sereno | 25 | 22 | 83 | 1009 | 10 | N 5.5 | |
| Ieri h: 07:53 | Sereno | 23 | 21 | 88 | 1009 | 10 | N 5.5 | |
| Ieri h: 06:53 | Foschia | 21 | 20 | 94 | 1008 | 8 | N 0 | |
| Ieri h: 05:53 | Sereno | 21 | 21 | 100 | 1007 | 13 | N 5.5 | |
| Ieri h: 04:53 | Sereno | 22 | 21 | 94 | 1007 | 10 | SE 9.3 | |
| Ieri h: 03:53 | Sereno | 22 | 21 | 94 | 1007 | 10 | SE 7.4 | |
| Ieri h: 02:53 | Sereno | 23 | 21 | 88 | 1007 | 10 | SE 9.3 | |



